• Join FlightAware (Why Join?)
  • Login
  • US Flag 
03:31PM EDT


 

Airport Tracker/Info


-or-


 

Live Flight TrackerFlight Track Log ✈ RPA4907 ✈ 02-Jul-2013 ✈ KEWR - KBWI

Flight Track Log - Related Links

Times and Time Zones

All times are in EDT time to prevent confusion due to time zone crossing. See the RPA4907 flight status page for this flight to view local times or setup timezone preferences in your user account.

Time Position Orientation Groundspeed Altitude Reporting Facility
EDT Latitude Longitude Course Direction KTS MPH feet Rate Location/Type
03:07PM 40.6333 -74.1833 255° West 193 222 3,000  Level New York TRACON
03:08PM 40.6000 -74.2333 229° Southwest 209 241 5,200 2,520 Climbing New York TRACON
03:09PM 40.5815 -74.4852 245° Southwest  Level FlightAware Approximate
03:09PM 40.6000 -74.3000 270° West 215 247 7,800  Level New York TRACON
03:10PM 40.5429 -74.5935 245° Southwest  Level FlightAware Approximate
03:10PM 40.6167 -74.3833 285° West 207 238 10,400  Level New York TRACON
03:11PM 40.5049 -74.7021 246° West  Level FlightAware Approximate
03:12PM 40.4684 -74.8115 246° West  Level FlightAware Approximate
03:13PM 40.4272 -74.9140 255° West  Level FlightAware Approximate
03:13PM 40.5889 -74.5450 257° West 214 246 14,100  Level New York Center
03:14PM 40.5569 -74.6281 243° Southwest 263 303 14,000  Descending New York Center
03:15PM 40.5139 -74.7347 242° Southwest 299 344 14,100 600 Climbing New York Center
03:16PM 40.4775 -74.8228 242° Southwest 316 364 15,200 960 Climbing New York Center
03:17PM 40.4361 -74.9294 243° Southwest 311 358 16,000 360 Climbing New York Center
03:18PM 40.3892 -75.0192 236° Southwest 305 351 16,000  Level New York Center
03:19PM 40.3322 -75.0947 225° Southwest 315 362 16,000  Level New York Center
03:20PM 40.2728 -75.1806 228° Southwest 327 376 16,000  Level New York Center
03:21PM 40.2025 -75.2767 226° Southwest 339 390 16,100  Climbing New York Center
03:22PM 40.1475 -75.3519 226° Southwest 334 384 16,100  Level New York Center
03:23PM 40.0814 -75.4453 227° Southwest 334 384 16,100  Level New York Center
03:24PM 40.0217 -75.5306 228° Southwest 334 384 16,100  Level New York Center
03:25PM 39.9619 -75.6133 227° Southwest 334 384 16,100  Level New York Center
03:26PM 39.9042 -75.6986 229° Southwest 334 384 16,100 -60 Level New York Center
03:27PM 39.8544 -75.7925 235° Southwest 325 374 16,000 -480 Descending New York Center
03:28PM 39.8067 -75.8864 236° Southwest 320 368 15,200 -960 Descending New York Center
03:29PM 39.7167 -76.0500 234° Southwest 329 379 13,500 -1,080 Descending Potomac TRACON
03:30PM 39.6667 -76.1500 237° Southwest 322 371 12,400 -1,320 Descending Potomac TRACON
03:31PM 39.6333 -76.2333 243° Southwest 302 348 10,900 -1,620 Descending Potomac TRACON
03:32PM 39.5833 -76.3333 237° Southwest 266 306 9,200 -1,620 Descending Potomac TRACON
03:33PM 39.5500 -76.4167 243° Southwest 256 295 7,700 -1,380 Descending Potomac TRACON
03:34PM 39.5167 -76.4833 237° Southwest 238 274 6,500 -1,440 Descending Potomac TRACON
03:35PM 39.4833 -76.5667 243° Southwest 223 257 4,900 -1,260 Descending Potomac TRACON
03:36PM 39.4500 -76.6333 237° Southwest 236 272 4,000 -900 Descending Potomac TRACON
03:37PM 39.4333 -76.7000 252° West 237 273 3,100 -480 Descending Potomac TRACON
03:38PM 39.4000 -76.7833 243° Southwest 227 261 3,000 -60 Descending Potomac TRACON
03:39PM 39.3667 -76.8667 243° Southwest 232 267 3,000  Level Potomac TRACON
03:40PM 39.3333 -76.9333 237° Southwest 231 266 3,000  Level Potomac TRACON
03:41PM 39.2833 -76.9500 194° South 233 268 3,100  Climbing Potomac TRACON
03:42PM 39.2167 -76.9667 191° South 230 265 3,000  Descending Potomac TRACON
03:43PM 39.1833 -76.9333 142° Southeast 201 231 3,100 60 Climbing Potomac TRACON